createdAt,value
2023-05-09T00:00:02.638Z,0.40
2023-05-09T00:02:30.930Z,0.10
2023-05-09T00:04:58.869Z,4.03
2023-05-09T00:07:26.752Z,0.27
2023-05-09T00:09:54.644Z,0.67
2023-05-09T00:12:23.903Z,0.20
2023-05-09T00:14:51.797Z,2.00
2023-05-09T00:17:19.691Z,1.53
2023-05-09T00:19:47.809Z,0.10
2023-05-09T00:22:15.726Z,0.10
2023-05-09T00:24:43.685Z,0.20
2023-05-09T00:27:11.565Z,0.93
2023-05-09T00:29:40.868Z,0.40
2023-05-09T00:32:08.753Z,0.10
2023-05-09T00:34:36.664Z,0.10
2023-05-09T00:37:04.512Z,0.30
2023-05-09T00:39:32.443Z,0.20
2023-05-09T00:42:00.338Z,0.17
2023-05-09T00:44:28.305Z,0.10
2023-05-09T00:46:57.778Z,0.20
2023-05-09T00:49:25.664Z,4.20
2023-05-09T00:51:53.507Z,0.10
2023-05-09T00:54:21.401Z,0.10
2023-05-09T00:56:49.277Z,0.10
2023-05-09T00:59:18.076Z,0.10
2023-05-09T01:01:46.061Z,0.10
2023-05-09T01:04:15.495Z,0.20
2023-05-09T01:06:48.052Z,0.10
2023-05-09T01:09:19.557Z,0.10
2023-05-09T01:11:50.572Z,0.30
2023-05-09T01:14:23.660Z,0.27
2023-05-09T01:16:55.189Z,0.20
2023-05-09T01:19:33.670Z,0.30
2023-05-09T01:22:02.175Z,0.10
2023-05-09T01:24:39.997Z,0.10
2023-05-09T01:27:17.259Z,0.10
2023-05-09T01:29:48.140Z,0.10
2023-05-09T01:32:19.259Z,0.10
2023-05-09T01:34:47.158Z,0.10
2023-05-09T01:37:15.822Z,0.53
2023-05-09T01:39:46.250Z,1.40
2023-05-09T01:42:14.168Z,0.20
2023-05-09T01:44:42.682Z,0.67
2023-05-09T01:47:11.986Z,0.40
2023-05-09T01:49:41.068Z,0.10
2023-05-09T01:52:10.377Z,0.17
2023-05-09T01:54:38.507Z,0.10
2023-05-09T01:57:06.480Z,0.30
2023-05-09T01:59:34.551Z,0.10
2023-05-09T02:02:02.689Z,0.10
2023-05-09T02:04:32.064Z,0.10
2023-05-09T02:06:59.956Z,0.10
2023-05-09T02:09:27.851Z,0.17
2023-05-09T02:11:55.713Z,0.10
2023-05-09T02:14:23.606Z,0.10
2023-05-09T02:16:51.534Z,0.10
2023-05-09T02:19:19.417Z,0.10
2023-05-09T02:21:48.675Z,0.10
2023-05-09T02:24:16.574Z,0.20
2023-05-09T02:26:44.450Z,0.10
2023-05-09T02:29:12.430Z,0.10
2023-05-09T02:31:40.355Z,0.10
2023-05-09T02:34:08.316Z,0.10
2023-05-09T02:36:36.189Z,0.03
2023-05-09T02:39:05.646Z,0.10
2023-05-09T02:41:33.685Z,0.20
2023-05-09T02:44:01.626Z,0.10
2023-05-09T02:46:31.102Z,0.10
2023-05-09T02:48:59.053Z,0.10
2023-05-09T02:51:26.963Z,0.30
2023-05-09T02:53:54.876Z,0.33
2023-05-09T02:56:24.186Z,0.23
2023-05-09T02:58:52.097Z,1.40
2023-05-09T03:01:20.064Z,0.20
2023-05-09T03:03:48.207Z,0.73
2023-05-09T03:06:16.222Z,0.10
2023-05-09T03:08:44.121Z,0.10
2023-05-09T03:11:11.991Z,0.30
2023-05-09T03:13:41.256Z,0.10
2023-05-09T03:16:09.229Z,0.10
2023-05-09T03:18:37.195Z,0.10
2023-05-09T03:21:05.482Z,0.37
2023-05-09T03:23:33.342Z,0.40
2023-05-09T03:26:01.213Z,0.10
2023-05-09T03:28:29.171Z,0.10
2023-05-09T03:30:58.680Z,0.10
2023-05-09T03:33:26.567Z,0.23
2023-05-09T03:35:54.478Z,0.20
2023-05-09T03:38:24.350Z,0.10
2023-05-09T03:40:52.294Z,0.10
2023-05-09T03:43:20.140Z,0.13
2023-05-09T03:45:48.070Z,0.10
2023-05-09T03:48:17.390Z,0.17
2023-05-09T03:50:45.224Z,1.13
2023-05-09T03:53:13.172Z,0.20
2023-05-09T03:55:41.030Z,0.20
2023-05-09T03:58:08.917Z,0.20
2023-05-09T04:00:36.820Z,0.10
2023-05-09T04:03:04.877Z,0.57
2023-05-09T04:05:35.389Z,0.30
2023-05-09T04:08:03.489Z,0.10
2023-05-09T04:10:31.574Z,0.10
2023-05-09T04:12:59.480Z,0.10
2023-05-09T04:15:27.470Z,0.10
2023-05-09T04:17:55.452Z,0.10
2023-05-09T04:20:23.520Z,0.30
2023-05-09T04:22:52.763Z,5.40
2023-05-09T04:25:20.797Z,3.53
2023-05-09T04:27:48.723Z,2.23
2023-05-09T04:30:17.560Z,5.33
2023-05-09T04:32:46.187Z,4.23
2023-05-09T04:35:14.409Z,2.63
2023-05-09T04:37:42.877Z,5.07
2023-05-09T04:40:13.365Z,6.27
2023-05-09T04:42:41.434Z,3.67
2023-05-09T04:45:11.777Z,1.90
2023-05-09T04:47:39.839Z,4.83
2023-05-09T04:50:09.194Z,4.60
2023-05-09T04:52:37.107Z,3.50
2023-05-09T04:55:05.220Z,2.10
2023-05-09T04:57:34.428Z,3.50
2023-05-09T05:00:02.298Z,4.13
2023-05-09T05:02:30.494Z,5.47
2023-05-09T05:05:10.215Z,2.37
2023-05-09T05:07:39.765Z,3.10
2023-05-09T05:10:08.807Z,3.60
2023-05-09T05:12:38.027Z,2.87
2023-05-09T05:15:06.970Z,2.27
2023-05-09T05:17:34.894Z,4.20
2023-05-09T05:20:06.380Z,3.00
2023-05-09T05:22:34.411Z,2.77
2023-05-09T05:25:03.541Z,2.37
2023-05-09T05:27:31.519Z,4.03
2023-05-09T05:30:00.969Z,2.63
2023-05-09T05:32:29.113Z,2.50
2023-05-09T05:34:57.471Z,4.47
2023-05-09T05:37:25.513Z,4.97
2023-05-09T05:39:53.468Z,2.93
2023-05-09T05:42:21.364Z,0.10
2023-05-09T05:44:49.639Z,0.10
2023-05-09T05:47:19.040Z,0.10
2023-05-09T05:49:47.371Z,0.20
2023-05-09T05:52:15.442Z,0.10
2023-05-09T05:54:43.358Z,0.10
2023-05-09T05:57:11.318Z,0.10
2023-05-09T05:59:39.243Z,0.10
2023-05-09T06:02:07.447Z,0.10
2023-05-09T06:04:36.733Z,0.10
2023-05-09T06:07:04.682Z,0.10
2023-05-09T06:09:32.584Z,0.10
2023-05-09T06:12:00.463Z,0.33
2023-05-09T06:14:28.328Z,0.10
2023-05-09T06:16:56.292Z,0.10
2023-05-09T06:19:24.161Z,0.10
2023-05-09T06:21:53.457Z,0.93
2023-05-09T06:24:34.523Z,0.10
2023-05-09T06:27:03.650Z,0.10
2023-05-09T06:29:31.714Z,0.30
2023-05-09T06:31:59.812Z,0.10
2023-05-09T06:34:27.819Z,0.20
2023-05-09T06:36:57.114Z,0.10
2023-05-09T06:39:24.961Z,0.10
2023-05-09T06:41:52.952Z,0.23
2023-05-09T06:44:20.961Z,7.20
2023-05-09T06:46:48.921Z,0.13
2023-05-09T06:49:16.894Z,0.10
2023-05-09T06:51:45.143Z,0.70
2023-05-09T06:54:14.408Z,0.30
2023-05-09T06:56:42.302Z,0.20
2023-05-09T06:59:13.280Z,0.10
2023-05-09T07:01:41.265Z,0.10
2023-05-09T07:04:09.214Z,0.20
2023-05-09T07:06:37.120Z,0.10
2023-05-09T07:09:05.402Z,0.20
2023-05-09T07:11:37.046Z,0.30
2023-05-09T07:14:04.953Z,0.20
2023-05-09T07:16:34.659Z,0.67
2023-05-09T07:19:04.989Z,0.10
2023-05-09T07:21:34.368Z,0.40
2023-05-09T07:24:02.537Z,0.33
2023-05-09T07:26:32.906Z,2.03
2023-05-09T07:29:02.385Z,0.20
2023-05-09T07:31:31.273Z,0.10
2023-05-09T07:34:00.423Z,0.10
2023-05-09T07:36:28.523Z,0.40
2023-05-09T07:38:56.577Z,0.50
2023-05-09T07:41:24.860Z,0.20
2023-05-09T07:43:53.282Z,0.10
2023-05-09T07:46:22.954Z,1.13
2023-05-09T07:48:51.049Z,0.10
2023-05-09T07:51:19.079Z,0.10
2023-05-09T07:53:47.253Z,0.27
2023-05-09T07:56:15.221Z,0.10
2023-05-09T07:58:43.159Z,0.10
2023-05-09T08:01:11.564Z,0.10
2023-05-09T08:03:41.534Z,0.30
2023-05-09T08:06:09.565Z,0.10
2023-05-09T08:08:38.887Z,0.10
2023-05-09T08:11:07.755Z,0.10
2023-05-09T08:13:35.677Z,0.20
2023-05-09T08:16:03.806Z,0.20
2023-05-09T08:18:31.730Z,0.10
2023-05-09T08:21:01.190Z,0.37
2023-05-09T08:23:30.351Z,0.43
2023-05-09T08:25:59.260Z,0.10
2023-05-09T08:28:28.845Z,0.10
2023-05-09T08:30:57.853Z,0.10
2023-05-09T08:33:25.920Z,11.30
2023-05-09T08:35:53.850Z,3.60
2023-05-09T08:38:24.364Z,0.20
2023-05-09T08:40:52.349Z,0.30
2023-05-09T08:43:20.240Z,0.10
2023-05-09T08:45:51.590Z,0.10
2023-05-09T08:48:20.562Z,0.43
2023-05-09T08:50:48.714Z,0.20
2023-05-09T08:53:16.644Z,0.20
2023-05-09T08:55:46.007Z,0.10
2023-05-09T08:58:19.929Z,0.40
2023-05-09T09:00:48.498Z,0.20
2023-05-09T09:03:16.724Z,0.37
2023-05-09T09:05:45.487Z,0.10
2023-05-09T09:08:14.450Z,0.10
2023-05-09T09:10:43.488Z,0.23
2023-05-09T09:13:12.877Z,0.20
2023-05-09T09:15:41.888Z,0.10
2023-05-09T09:18:10.549Z,0.10
2023-05-09T09:20:39.673Z,0.10
2023-05-09T09:23:07.776Z,0.17
2023-05-09T09:25:35.601Z,0.10
2023-05-09T09:28:03.514Z,0.10
2023-05-09T09:30:32.749Z,0.20
2023-05-09T09:33:01.410Z,0.10
2023-05-09T09:35:29.484Z,0.23
2023-05-09T09:38:00.733Z,0.10
2023-05-09T09:40:28.647Z,0.20
2023-05-09T09:42:56.597Z,0.10
2023-05-09T09:45:27.841Z,0.30
2023-05-09T09:47:57.133Z,0.03
2023-05-09T09:50:25.554Z,0.10
2023-05-09T09:52:54.166Z,0.50
2023-05-09T09:55:22.552Z,2.47
2023-05-09T09:57:50.680Z,0.10
2023-05-09T10:00:20.067Z,0.20
2023-05-09T10:02:49.538Z,0.20
2023-05-09T10:05:22.922Z,0.20
2023-05-09T10:07:57.336Z,0.10
2023-05-09T10:10:27.471Z,1.87
2023-05-09T10:13:00.075Z,0.10
2023-05-09T10:15:30.107Z,0.10
2023-05-09T10:18:04.495Z,0.00
2023-05-09T10:20:35.240Z,0.10
2023-05-09T10:23:04.132Z,0.10
2023-05-09T10:25:38.471Z,0.00
2023-05-09T10:28:06.729Z,0.10
2023-05-09T10:30:37.182Z,0.10
2023-05-09T10:33:05.938Z,0.10
2023-05-09T10:35:37.902Z,0.10
2023-05-09T10:38:05.853Z,0.10
2023-05-09T10:40:33.744Z,0.10
2023-05-09T10:43:01.746Z,0.10
2023-05-09T10:45:29.730Z,0.10
2023-05-09T10:47:57.689Z,0.10
2023-05-09T10:50:25.941Z,0.03
2023-05-09T10:53:08.692Z,0.00
2023-05-09T10:55:40.942Z,0.10
2023-05-09T10:58:20.065Z,0.13
2023-05-09T11:00:48.365Z,0.10
2023-05-09T11:03:18.318Z,0.20
2023-05-09T11:05:46.252Z,0.30
2023-05-09T11:08:28.214Z,0.20
2023-05-09T11:10:56.777Z,0.10
2023-05-09T11:13:25.408Z,0.10
2023-05-09T11:16:20.296Z,0.20
2023-05-09T11:18:55.046Z,0.00
2023-05-09T11:21:24.571Z,0.30
2023-05-09T11:23:55.369Z,0.10
2023-05-09T11:26:23.705Z,0.20
2023-05-09T11:28:54.411Z,0.10
2023-05-09T11:31:22.368Z,0.30
2023-05-09T11:33:55.162Z,0.20
2023-05-09T11:36:29.992Z,0.40
2023-05-09T11:39:07.135Z,0.10
2023-05-09T11:41:42.320Z,0.30
2023-05-09T11:44:17.651Z,0.10
2023-05-09T11:46:45.749Z,0.00
2023-05-09T11:49:13.586Z,0.10
2023-05-09T11:51:41.563Z,0.40
2023-05-09T11:54:12.012Z,0.10
2023-05-09T11:56:41.292Z,7.20
2023-05-09T11:59:10.553Z,0.20
2023-05-09T12:01:38.503Z,0.50
2023-05-09T12:04:07.392Z,0.17
2023-05-09T12:06:35.265Z,0.30
2023-05-09T12:09:03.209Z,0.20
2023-05-09T12:11:35.007Z,0.73
2023-05-09T12:14:02.962Z,1.13
2023-05-09T12:16:31.000Z,4.57
2023-05-09T12:18:59.086Z,4.10
2023-05-09T12:21:28.419Z,6.63
2023-05-09T12:23:57.166Z,4.63
2023-05-09T12:26:25.544Z,2.60
2023-05-09T12:28:54.750Z,3.17
2023-05-09T12:31:22.728Z,4.73
2023-05-09T12:33:50.638Z,2.87
2023-05-09T12:36:18.791Z,6.35
2023-05-09T12:38:54.722Z,2.80
2023-05-09T12:41:36.948Z,3.10
2023-05-09T12:44:10.885Z,4.93
2023-05-09T12:46:38.778Z,2.35
2023-05-09T12:49:07.072Z,2.63
2023-05-09T12:51:34.983Z,3.35
2023-05-09T12:54:04.773Z,4.28
2023-05-09T12:56:34.947Z,8.23
2023-05-09T12:59:02.880Z,7.43
2023-05-09T13:01:32.247Z,6.90
2023-05-09T13:04:03.997Z,7.67
2023-05-09T13:06:32.401Z,6.07
2023-05-09T13:09:01.699Z,11.13
2023-05-09T13:11:30.136Z,6.77
2023-05-09T13:13:58.364Z,4.57
2023-05-09T13:16:26.360Z,8.13
2023-05-09T13:18:55.662Z,7.17
2023-05-09T13:21:23.633Z,5.93
2023-05-09T13:23:52.342Z,3.20
2023-05-09T13:26:21.229Z,4.27
2023-05-09T13:28:49.194Z,3.07
2023-05-09T13:31:17.212Z,2.93
2023-05-09T13:33:45.137Z,1.83
2023-05-09T13:36:14.419Z,0.97
2023-05-09T13:38:42.314Z,0.70
2023-05-09T13:41:10.549Z,0.60
2023-05-09T13:43:38.544Z,0.40
2023-05-09T13:46:06.599Z,0.50
2023-05-09T13:48:34.495Z,1.67
2023-05-09T13:51:02.427Z,0.83
2023-05-09T13:53:31.654Z,0.50
2023-05-09T13:55:59.569Z,0.50
2023-05-09T13:58:27.508Z,1.50
2023-05-09T14:00:55.591Z,5.63
2023-05-09T14:03:23.633Z,0.30
2023-05-09T14:05:52.137Z,0.40
2023-05-09T14:08:21.477Z,1.33
2023-05-09T14:10:51.192Z,4.70
2023-05-09T14:13:19.377Z,4.17
2023-05-09T14:15:47.518Z,8.47
2023-05-09T14:18:19.189Z,2.83
2023-05-09T14:20:48.959Z,3.57
2023-05-09T14:23:17.030Z,0.80
2023-05-09T14:25:44.995Z,1.03
2023-05-09T14:28:14.706Z,1.80
2023-05-09T14:30:42.746Z,6.07
2023-05-09T14:33:10.979Z,2.13
2023-05-09T14:35:41.248Z,0.83
2023-05-09T14:38:09.597Z,3.60
2023-05-09T14:40:37.509Z,3.37
2023-05-09T14:43:05.917Z,2.00
2023-05-09T14:45:35.309Z,3.33
2023-05-09T14:48:04.044Z,0.60
2023-05-09T14:50:33.444Z,2.00
2023-05-09T14:53:02.093Z,1.07
2023-05-09T14:55:31.216Z,4.00
2023-05-09T14:57:59.295Z,7.73
2023-05-09T15:00:28.378Z,4.67
2023-05-09T15:02:58.056Z,4.57
2023-05-09T15:05:25.994Z,3.83
2023-05-09T15:07:53.900Z,1.40
2023-05-09T15:10:21.742Z,2.43
2023-05-09T15:12:49.645Z,1.53
2023-05-09T15:15:18.408Z,3.83
2023-05-09T15:17:46.436Z,3.37
2023-05-09T15:20:16.396Z,5.83
2023-05-09T15:22:44.621Z,6.37
2023-05-09T15:25:12.689Z,9.33
2023-05-09T15:27:40.662Z,6.63
2023-05-09T15:30:09.481Z,8.83
2023-05-09T15:32:40.999Z,9.07
2023-05-09T15:35:09.768Z,7.67
2023-05-09T15:37:39.173Z,5.40
2023-05-09T15:40:08.399Z,7.00
2023-05-09T15:42:36.378Z,8.47
2023-05-09T15:45:04.910Z,3.40
2023-05-09T15:47:32.800Z,5.63
2023-05-09T15:50:00.947Z,4.77
2023-05-09T15:52:29.272Z,4.17
2023-05-09T15:54:58.882Z,3.20
2023-05-09T15:57:26.865Z,3.93
2023-05-09T15:59:56.054Z,1.33
2023-05-09T16:02:24.269Z,4.80
2023-05-09T16:04:52.500Z,7.03
2023-05-09T16:07:20.659Z,3.13
2023-05-09T16:09:48.930Z,8.53
2023-05-09T16:12:18.303Z,6.87
2023-05-09T16:14:46.405Z,3.83
2023-05-09T16:17:14.434Z,5.10
2023-05-09T16:19:42.486Z,3.77
2023-05-09T16:22:10.481Z,5.43
2023-05-09T16:24:38.519Z,7.00
2023-05-09T16:27:06.485Z,5.27
2023-05-09T16:29:35.789Z,11.57
2023-05-09T16:32:03.893Z,18.03
2023-05-09T16:34:31.935Z,12.73
2023-05-09T16:36:59.821Z,14.90
2023-05-09T16:39:28.438Z,18.50
2023-05-09T16:41:56.501Z,13.53
2023-05-09T16:44:25.584Z,18.30
2023-05-09T16:46:54.867Z,19.13
2023-05-09T16:49:22.780Z,12.07
2023-05-09T16:51:50.701Z,19.13
2023-05-09T16:54:18.603Z,16.67
2023-05-09T16:56:46.527Z,18.70
2023-05-09T16:59:14.666Z,19.03
2023-05-09T17:01:43.343Z,18.00
2023-05-09T17:04:12.728Z,15.67
2023-05-09T17:06:40.659Z,21.83
2023-05-09T17:09:08.810Z,17.30
2023-05-09T17:11:36.704Z,19.97
2023-05-09T17:14:04.680Z,24.20
2023-05-09T17:16:32.615Z,17.63
2023-05-09T17:19:00.531Z,26.60
2023-05-09T17:21:29.923Z,21.57
2023-05-09T17:23:57.820Z,22.07
2023-05-09T17:26:25.924Z,17.07
2023-05-09T17:28:54.007Z,19.73
2023-05-09T17:31:22.888Z,22.50
2023-05-09T17:33:51.007Z,17.73
2023-05-09T17:36:19.003Z,19.10
2023-05-09T17:38:48.332Z,21.80
2023-05-09T17:41:16.226Z,29.10
2023-05-09T17:43:44.415Z,29.40
2023-05-09T17:46:12.361Z,23.03
2023-05-09T17:48:40.674Z,18.73
2023-05-09T17:51:08.644Z,20.80
2023-05-09T17:53:36.782Z,28.07
2023-05-09T17:56:06.743Z,27.87
2023-05-09T17:58:34.796Z,25.70
2023-05-09T18:01:02.723Z,17.97
2023-05-09T18:03:32.474Z,24.00
2023-05-09T18:06:01.879Z,20.33
2023-05-09T18:08:30.157Z,23.17
2023-05-09T18:10:58.107Z,27.63
2023-05-09T18:13:27.536Z,22.03
2023-05-09T18:15:59.547Z,23.73
2023-05-09T18:18:28.400Z,30.40
2023-05-09T18:20:56.878Z,28.63
2023-05-09T18:23:25.609Z,27.87
2023-05-09T18:25:54.066Z,27.00
2023-05-09T18:28:24.666Z,24.00
2023-05-09T18:30:54.632Z,32.63
2023-05-09T18:33:23.699Z,29.90
2023-05-09T18:35:51.856Z,36.47
2023-05-09T18:38:19.838Z,29.70
2023-05-09T18:40:48.271Z,23.27
2023-05-09T18:43:16.907Z,28.73
2023-05-09T18:45:47.940Z,29.27
2023-05-09T18:48:17.627Z,21.77
2023-05-09T18:50:45.516Z,21.93
2023-05-09T18:53:13.509Z,21.20
2023-05-09T18:55:42.823Z,25.70
2023-05-09T18:58:11.007Z,24.63
2023-05-09T19:00:39.481Z,21.50
2023-05-09T19:03:07.799Z,21.13
2023-05-09T19:05:37.337Z,18.17
2023-05-09T19:08:05.732Z,26.67
2023-05-09T19:10:33.708Z,17.93
2023-05-09T19:13:01.738Z,14.80
2023-05-09T19:15:30.250Z,18.77
2023-05-09T19:17:58.233Z,12.73
2023-05-09T19:20:26.629Z,16.47
2023-05-09T19:22:56.305Z,14.90
2023-05-09T19:25:24.322Z,22.87
2023-05-09T19:27:53.144Z,18.03
2023-05-09T19:30:21.383Z,10.60
2023-05-09T19:32:49.444Z,9.97
2023-05-09T19:35:17.345Z,11.43
2023-05-09T19:37:45.373Z,15.47
2023-05-09T19:40:15.284Z,7.07
2023-05-09T19:42:43.562Z,16.70
2023-05-09T19:45:12.414Z,15.07
2023-05-09T19:47:40.505Z,20.53
2023-05-09T19:50:09.597Z,14.53
2023-05-09T19:52:37.625Z,16.60
2023-05-09T19:55:06.198Z,18.93
2023-05-09T19:57:35.744Z,16.57
2023-05-09T20:00:03.798Z,20.60
2023-05-09T20:02:32.143Z,23.70
2023-05-09T20:05:00.215Z,13.47
2023-05-09T20:07:28.114Z,10.07
2023-05-09T20:09:56.047Z,20.53
2023-05-09T20:12:24.132Z,24.43
2023-05-09T20:14:53.463Z,19.67
2023-05-09T20:17:21.419Z,18.70
2023-05-09T20:19:49.316Z,16.27
2023-05-09T20:22:17.237Z,19.07
2023-05-09T20:24:45.314Z,18.87
2023-05-09T20:27:13.701Z,10.93
2023-05-09T20:29:41.630Z,14.20
2023-05-09T20:32:11.311Z,20.67
2023-05-09T20:34:39.239Z,14.27
2023-05-09T20:37:07.716Z,23.00
2023-05-09T20:39:35.686Z,21.93
2023-05-09T20:42:03.660Z,15.77
2023-05-09T20:44:32.204Z,20.83
2023-05-09T20:47:00.306Z,23.07
2023-05-09T20:49:29.659Z,29.13
2023-05-09T20:51:57.573Z,24.97
2023-05-09T20:54:25.900Z,35.63
2023-05-09T20:56:53.874Z,28.87
2023-05-09T20:59:21.801Z,27.47
2023-05-09T21:01:49.697Z,30.60
2023-05-09T21:04:18.045Z,29.73
2023-05-09T21:06:47.338Z,32.10
2023-05-09T21:09:15.235Z,33.00
2023-05-09T21:11:43.272Z,28.90
2023-05-09T21:14:11.153Z,32.93
2023-05-09T21:16:39.086Z,27.77
2023-05-09T21:19:08.779Z,35.73
2023-05-09T21:21:36.750Z,37.27
2023-05-09T21:24:09.185Z,33.13
2023-05-09T21:26:37.283Z,33.63
2023-05-09T21:29:05.372Z,30.30
2023-05-09T21:31:33.555Z,22.63
2023-05-09T21:34:01.747Z,29.60
2023-05-09T21:36:29.719Z,22.63
2023-05-09T21:38:57.637Z,28.20
2023-05-09T21:41:27.823Z,33.40
2023-05-09T21:43:56.130Z,28.70
2023-05-09T21:46:24.177Z,27.83
2023-05-09T21:48:52.216Z,33.20
2023-05-09T21:51:20.288Z,33.53
2023-05-09T21:53:48.211Z,38.67
2023-05-09T21:56:16.123Z,52.40
2023-05-09T21:58:45.371Z,43.87
2023-05-09T22:01:14.021Z,42.20
2023-05-09T22:03:42.045Z,39.43
2023-05-09T22:06:09.991Z,32.70
2023-05-09T22:08:37.863Z,44.10
2023-05-09T22:11:05.868Z,47.83
2023-05-09T22:13:33.749Z,35.80
2023-05-09T22:16:03.849Z,42.17
2023-05-09T22:18:32.167Z,42.97
2023-05-09T22:21:00.421Z,48.30
2023-05-09T22:23:28.305Z,36.77
2023-05-09T22:25:56.218Z,36.53
2023-05-09T22:28:24.122Z,44.80
2023-05-09T22:30:52.003Z,34.90
2023-05-09T22:33:21.322Z,39.83
2023-05-09T22:35:49.212Z,38.80
2023-05-09T22:38:17.053Z,47.67
2023-05-09T22:40:44.999Z,40.90
2023-05-09T22:43:13.070Z,54.87
2023-05-09T22:45:41.009Z,48.93
2023-05-09T22:48:09.001Z,42.07
2023-05-09T22:50:38.263Z,57.50
2023-05-09T22:53:06.095Z,42.83
2023-05-09T22:55:34.393Z,45.47
2023-05-09T22:58:02.243Z,40.93
2023-05-09T23:00:30.109Z,48.17
2023-05-09T23:02:59.443Z,41.93
2023-05-09T23:05:27.670Z,38.60
2023-05-09T23:07:57.324Z,42.27
2023-05-09T23:10:25.232Z,37.63
2023-05-09T23:12:53.173Z,40.07
2023-05-09T23:15:21.484Z,36.03
2023-05-09T23:17:49.438Z,46.90
2023-05-09T23:20:17.635Z,37.63
2023-05-09T23:22:45.686Z,39.90
2023-05-09T23:25:14.935Z,31.17
2023-05-09T23:27:44.570Z,35.77
2023-05-09T23:30:12.897Z,32.37
2023-05-09T23:32:40.793Z,36.30
2023-05-09T23:35:09.066Z,39.93
2023-05-09T23:37:36.948Z,35.87
2023-05-09T23:40:05.043Z,39.30
2023-05-09T23:42:34.659Z,49.73
2023-05-09T23:45:02.526Z,42.53
2023-05-09T23:47:30.473Z,38.83
2023-05-09T23:49:58.583Z,45.07
2023-05-09T23:52:26.599Z,35.07
2023-05-09T23:54:54.454Z,33.87
2023-05-09T23:57:22.309Z,50.63
2023-05-09T23:59:51.557Z,46.17
